createdAt,value
2018-06-03T00:00:08.344Z,1016.07
2018-06-03T00:01:08.308Z,1016.09
2018-06-03T00:02:08.264Z,1016.09
2018-06-03T00:03:08.232Z,1016.13
2018-06-03T00:04:08.182Z,1016.08
2018-06-03T00:05:08.144Z,1016.10
2018-06-03T00:06:08.103Z,1016.07
2018-06-03T00:07:08.063Z,1016.09
2018-06-03T00:08:08.023Z,1016.04
2018-06-03T00:09:07.981Z,1016.05
2018-06-03T00:10:07.939Z,1016.05
2018-06-03T00:11:07.903Z,1016.04
2018-06-03T00:12:07.863Z,1016.09
2018-06-03T00:13:07.820Z,1016.10
2018-06-03T00:14:07.775Z,1016.07
2018-06-03T00:15:07.737Z,1016.06
2018-06-03T00:16:07.697Z,1016.06
2018-06-03T00:17:07.666Z,1016.10
2018-06-03T00:18:07.615Z,1016.11
2018-06-03T00:19:07.573Z,1016.12
2018-06-03T00:20:07.546Z,1016.15
2018-06-03T00:21:07.493Z,1016.14
2018-06-03T00:22:07.454Z,1016.11
2018-06-03T00:23:07.411Z,1016.12
2018-06-03T00:24:07.373Z,1016.10
2018-06-03T00:25:07.338Z,1016.08
2018-06-03T00:26:07.343Z,1016.09
2018-06-03T00:27:07.251Z,1016.09
2018-06-03T00:28:07.211Z,1016.08
2018-06-03T00:29:07.169Z,1016.06
2018-06-03T00:30:07.132Z,1016.05
2018-06-03T00:31:07.093Z,1016.01
2018-06-03T00:32:07.048Z,1016.01
2018-06-03T00:33:07.010Z,1016.03
2018-06-03T00:34:06.967Z,1016.02
2018-06-03T00:35:06.925Z,1016.01
2018-06-03T00:36:06.886Z,1016.06
2018-06-03T00:37:06.849Z,1016.00
2018-06-03T00:38:06.805Z,1016.01
2018-06-03T00:39:06.762Z,1016.01
2018-06-03T00:40:06.723Z,1015.99
2018-06-03T00:41:06.681Z,1015.97
2018-06-03T00:42:06.640Z,1015.93
2018-06-03T00:43:06.602Z,1015.95
2018-06-03T00:44:06.559Z,1015.89
2018-06-03T00:45:06.522Z,1015.93
2018-06-03T00:46:06.476Z,1015.91
2018-06-03T00:47:06.438Z,1015.92
2018-06-03T00:48:06.398Z,1015.88
2018-06-03T00:49:06.356Z,1015.90
2018-06-03T00:50:06.319Z,1015.87
2018-06-03T00:51:06.273Z,1015.93
2018-06-03T00:52:06.234Z,1015.91
2018-06-03T00:53:06.193Z,1015.89
2018-06-03T00:54:06.149Z,1015.93
2018-06-03T00:55:06.116Z,1015.91
2018-06-03T00:56:06.072Z,1015.91
2018-06-03T00:57:06.033Z,1015.96
2018-06-03T00:58:05.992Z,1015.91
2018-06-03T00:59:05.946Z,1015.91
2018-06-03T01:00:05.907Z,1015.94
2018-06-03T01:01:05.866Z,1015.92
2018-06-03T01:02:05.823Z,1015.84
2018-06-03T01:03:05.784Z,1015.90
2018-06-03T01:04:05.743Z,1015.89
2018-06-03T01:05:05.702Z,1015.87
2018-06-03T01:06:05.664Z,1015.90
2018-06-03T01:07:05.627Z,1015.91
2018-06-03T01:08:05.578Z,1015.90
2018-06-03T01:09:05.537Z,1015.83
2018-06-03T01:10:05.497Z,1015.88
2018-06-03T01:11:05.456Z,1015.92
2018-06-03T01:12:05.415Z,1015.88
2018-06-03T01:13:05.375Z,1015.91
2018-06-03T01:14:05.335Z,1015.91
2018-06-03T01:15:05.292Z,1015.92
2018-06-03T01:16:05.251Z,1015.88
2018-06-03T01:17:05.209Z,1015.89
2018-06-03T01:18:05.168Z,1015.86
2018-06-03T01:19:05.131Z,1015.83
2018-06-03T01:20:05.086Z,1015.84
2018-06-03T01:21:05.046Z,1015.84
2018-06-03T01:22:05.004Z,1015.84
2018-06-03T01:23:04.963Z,1015.82
2018-06-03T01:24:04.924Z,1015.87
2018-06-03T01:25:04.880Z,1015.88
2018-06-03T01:26:04.841Z,1015.86
2018-06-03T01:27:04.803Z,1015.85
2018-06-03T01:28:04.761Z,1015.86
2018-06-03T01:29:04.718Z,1015.86
2018-06-03T01:30:04.679Z,1015.91
2018-06-03T01:31:04.635Z,1015.88
2018-06-03T01:32:04.594Z,1015.86
2018-06-03T01:33:04.553Z,1015.90
2018-06-03T01:34:04.517Z,1015.93
2018-06-03T01:35:04.471Z,1015.92
2018-06-03T01:36:04.433Z,1015.91
2018-06-03T01:37:04.388Z,1015.89
2018-06-03T01:38:04.346Z,1015.90
2018-06-03T01:39:04.307Z,1015.87
2018-06-03T01:40:04.271Z,1015.86
2018-06-03T01:41:04.232Z,1015.89
2018-06-03T01:42:04.186Z,1015.80
2018-06-03T01:43:04.143Z,1015.87
2018-06-03T01:44:04.101Z,1015.85
2018-06-03T01:45:04.061Z,1015.88
2018-06-03T01:46:04.021Z,1015.90
2018-06-03T01:47:03.979Z,1015.86
2018-06-03T01:48:03.950Z,1015.88
2018-06-03T01:49:03.896Z,1015.88
2018-06-03T01:50:03.874Z,1015.83
2018-06-03T01:51:03.813Z,1015.87
2018-06-03T01:52:03.777Z,1015.82
2018-06-03T01:53:03.735Z,1015.87
2018-06-03T01:54:03.691Z,1015.86
2018-06-03T01:55:03.647Z,1015.82
2018-06-03T01:56:03.609Z,1015.85
2018-06-03T01:57:03.567Z,1015.85
2018-06-03T01:58:03.528Z,1015.85
2018-06-03T01:59:03.484Z,1015.86
2018-06-03T02:00:03.442Z,1015.86
2018-06-03T02:01:03.405Z,1015.81
2018-06-03T02:02:03.361Z,1015.82
2018-06-03T02:03:03.323Z,1015.80
2018-06-03T02:04:03.279Z,1015.79
2018-06-03T02:05:03.245Z,1015.78
2018-06-03T02:06:03.198Z,1015.79
2018-06-03T02:07:03.155Z,1015.79
2018-06-03T02:08:03.117Z,1015.79
2018-06-03T02:09:03.074Z,1015.80
2018-06-03T02:10:03.038Z,1015.79
2018-06-03T02:11:02.991Z,1015.78
2018-06-03T02:12:02.950Z,1015.78
2018-06-03T02:13:02.911Z,1015.78
2018-06-03T02:14:02.870Z,1015.75
2018-06-03T02:15:02.828Z,1015.73
2018-06-03T02:16:02.786Z,1015.68
2018-06-03T02:17:02.745Z,1015.69
2018-06-03T02:18:02.702Z,1015.72
2018-06-03T02:19:02.668Z,1015.69
2018-06-03T02:20:02.624Z,1015.68
2018-06-03T02:21:02.584Z,1015.75
2018-06-03T02:22:02.542Z,1015.71
2018-06-03T02:23:02.502Z,1015.74
2018-06-03T02:24:02.457Z,1015.76
2018-06-03T02:25:02.420Z,1015.76
2018-06-03T02:26:02.376Z,1015.74
2018-06-03T02:27:02.342Z,1015.71
2018-06-03T02:28:02.294Z,1015.70
2018-06-03T02:29:02.253Z,1015.68
2018-06-03T02:30:02.221Z,1015.72
2018-06-03T02:31:02.176Z,1015.66
2018-06-03T02:32:02.134Z,1015.70
2018-06-03T02:33:02.096Z,1015.66
2018-06-03T02:34:02.048Z,1015.68
2018-06-03T02:35:02.008Z,1015.64
2018-06-03T02:36:01.965Z,1015.68
2018-06-03T02:37:01.926Z,1015.65
2018-06-03T02:38:01.895Z,1015.63
2018-06-03T02:39:01.849Z,1015.60
2018-06-03T02:40:01.807Z,1015.61
2018-06-03T02:41:01.766Z,1015.59
2018-06-03T02:42:01.739Z,1015.57
2018-06-03T02:43:01.681Z,1015.62
2018-06-03T02:44:01.640Z,1015.58
2018-06-03T02:45:01.599Z,1015.58
2018-06-03T02:46:01.563Z,1015.58
2018-06-03T02:47:01.516Z,1015.60
2018-06-03T02:48:01.482Z,1015.59
2018-06-03T02:49:01.438Z,1015.64
2018-06-03T02:51:01.351Z,1015.64
2018-06-03T02:52:01.321Z,1015.62
2018-06-03T02:53:01.272Z,1015.62
2018-06-03T02:54:01.231Z,1015.62
2018-06-03T02:55:01.189Z,1015.63
2018-06-03T02:56:01.148Z,1015.61
2018-06-03T02:57:01.108Z,1015.61
2018-06-03T02:58:01.069Z,1015.62
2018-06-03T02:59:01.031Z,1015.58
2018-06-03T03:00:00.987Z,1015.61
2018-06-03T03:01:00.952Z,1015.62
2018-06-03T03:02:00.907Z,1015.59
2018-06-03T03:03:00.861Z,1015.63
2018-06-03T03:04:00.820Z,1015.62
2018-06-03T03:05:00.780Z,1015.62
2018-06-03T03:06:00.744Z,1015.57
2018-06-03T03:07:00.702Z,1015.55
2018-06-03T03:08:00.654Z,1015.59
2018-06-03T03:09:00.619Z,1015.58
2018-06-03T03:10:00.574Z,1015.60
2018-06-03T03:11:00.544Z,1015.57
2018-06-03T03:12:00.493Z,1015.58
2018-06-03T03:13:00.453Z,1015.52
2018-06-03T03:14:00.410Z,1015.55
2018-06-03T03:15:00.368Z,1015.58
2018-06-03T03:16:00.328Z,1015.58
2018-06-03T03:17:00.292Z,1015.56
2018-06-03T03:18:00.261Z,1015.59
2018-06-03T03:19:00.223Z,1015.62
2018-06-03T03:20:00.241Z,1015.60
2018-06-03T03:21:00.125Z,1015.58
2018-06-03T03:22:00.080Z,1015.59
2018-06-03T03:23:00.043Z,1015.59
2018-06-03T03:24:00.018Z,1015.62
2018-06-03T03:24:59.963Z,1015.60
2018-06-03T03:25:59.920Z,1015.62
2018-06-03T03:26:59.886Z,1015.64
2018-06-03T03:27:59.837Z,1015.61
2018-06-03T03:28:59.796Z,1015.60
2018-06-03T03:29:59.761Z,1015.63
2018-06-03T03:30:59.717Z,1015.63
2018-06-03T03:31:59.677Z,1015.63
2018-06-03T03:32:59.633Z,1015.64
2018-06-03T03:33:59.592Z,1015.61
2018-06-03T03:34:59.553Z,1015.62
2018-06-03T03:35:59.510Z,1015.61
2018-06-03T03:36:59.473Z,1015.63
2018-06-03T03:37:59.431Z,1015.62
2018-06-03T03:38:59.390Z,1015.62
2018-06-03T03:39:59.348Z,1015.65
2018-06-03T03:40:59.310Z,1015.65
2018-06-03T03:41:59.267Z,1015.66
2018-06-03T03:42:59.225Z,1015.67
2018-06-03T03:43:59.183Z,1015.66
2018-06-03T03:44:59.148Z,1015.66
2018-06-03T03:45:59.104Z,1015.66
2018-06-03T03:46:59.065Z,1015.66
2018-06-03T03:47:59.023Z,1015.64
2018-06-03T03:48:58.984Z,1015.63
2018-06-03T03:49:58.941Z,1015.61
2018-06-03T03:50:58.902Z,1015.67
2018-06-03T03:51:58.860Z,1015.65
2018-06-03T03:52:58.817Z,1015.66
2018-06-03T03:53:58.780Z,1015.65
2018-06-03T03:54:58.737Z,1015.64
2018-06-03T03:55:58.694Z,1015.65
2018-06-03T03:56:58.655Z,1015.63
2018-06-03T03:57:58.614Z,1015.64
2018-06-03T03:58:58.578Z,1015.66
2018-06-03T03:59:58.530Z,1015.63
2018-06-03T04:00:58.490Z,1015.63
2018-06-03T04:01:58.453Z,1015.57
2018-06-03T04:02:58.407Z,1015.58
2018-06-03T04:03:58.368Z,1015.58
2018-06-03T04:04:58.334Z,1015.64
2018-06-03T04:05:58.297Z,1015.63
2018-06-03T04:06:58.246Z,1015.60
2018-06-03T04:07:58.209Z,1015.58
2018-06-03T04:08:58.168Z,1015.59
2018-06-03T04:09:58.122Z,1015.56
2018-06-03T04:10:58.084Z,1015.58
2018-06-03T04:11:58.042Z,1015.59
2018-06-03T04:12:58.001Z,1015.59
2018-06-03T04:13:57.960Z,1015.56
2018-06-03T04:14:57.919Z,1015.55
2018-06-03T04:15:57.880Z,1015.54
2018-06-03T04:16:57.836Z,1015.58
2018-06-03T04:17:57.797Z,1015.58
2018-06-03T04:18:57.755Z,1015.54
2018-06-03T04:19:57.717Z,1015.59
2018-06-03T04:20:57.680Z,1015.61
2018-06-03T04:21:57.654Z,1015.59
2018-06-03T04:22:57.600Z,1015.63
2018-06-03T04:23:57.552Z,1015.61
2018-06-03T04:24:57.518Z,1015.61
2018-06-03T04:25:57.476Z,1015.61
2018-06-03T04:26:57.433Z,1015.57
2018-06-03T04:27:57.395Z,1015.63
2018-06-03T04:28:57.355Z,1015.60
2018-06-03T04:29:57.313Z,1015.60
2018-06-03T04:30:57.270Z,1015.63
2018-06-03T04:31:57.227Z,1015.60
2018-06-03T04:32:57.187Z,1015.62
2018-06-03T04:33:57.150Z,1015.62
2018-06-03T04:34:57.107Z,1015.61
2018-06-03T04:35:57.065Z,1015.61
2018-06-03T04:36:57.028Z,1015.64
2018-06-03T04:37:56.983Z,1015.61
2018-06-03T04:38:56.948Z,1015.63
2018-06-03T04:39:56.904Z,1015.61
2018-06-03T04:40:56.864Z,1015.63
2018-06-03T04:41:56.825Z,1015.62
2018-06-03T04:42:56.780Z,1015.63
2018-06-03T04:43:56.739Z,1015.63
2018-06-03T04:44:56.700Z,1015.62
2018-06-03T04:45:56.665Z,1015.61
2018-06-03T04:46:56.623Z,1015.67
2018-06-03T04:47:56.580Z,1015.69
2018-06-03T04:48:56.538Z,1015.69
2018-06-03T04:49:56.496Z,1015.66
2018-06-03T04:50:56.456Z,1015.67
2018-06-03T04:51:56.416Z,1015.67
2018-06-03T04:52:56.376Z,1015.68
2018-06-03T04:53:56.333Z,1015.72
2018-06-03T04:54:56.349Z,1015.72
2018-06-03T04:55:56.257Z,1015.73
2018-06-03T04:56:56.216Z,1015.74
2018-06-03T04:57:56.178Z,1015.74
2018-06-03T04:58:56.142Z,1015.75
2018-06-03T04:59:56.092Z,1015.75
2018-06-03T05:00:56.054Z,1015.77
2018-06-03T05:01:56.012Z,1015.76
2018-06-03T05:02:55.976Z,1015.77
2018-06-03T05:03:55.933Z,1015.77
2018-06-03T05:04:55.894Z,1015.76
2018-06-03T05:05:55.851Z,1015.77
2018-06-03T05:06:55.810Z,1015.76
2018-06-03T05:07:55.783Z,1015.78
2018-06-03T05:08:55.731Z,1015.78
2018-06-03T05:09:55.690Z,1015.80
2018-06-03T05:10:55.655Z,1015.83
2018-06-03T05:11:55.613Z,1015.81
2018-06-03T05:12:55.567Z,1015.81
2018-06-03T05:13:55.527Z,1015.77
2018-06-03T05:14:55.489Z,1015.83
2018-06-03T05:15:55.448Z,1015.85
2018-06-03T05:16:55.411Z,1015.84
2018-06-03T05:17:55.366Z,1015.82
2018-06-03T05:18:55.328Z,1015.80
2018-06-03T05:19:55.284Z,1015.80
2018-06-03T05:20:55.256Z,1015.79
2018-06-03T05:21:55.203Z,1015.84
2018-06-03T05:22:55.168Z,1015.83
2018-06-03T05:23:55.125Z,1015.84
2018-06-03T05:24:55.090Z,1015.82
2018-06-03T05:25:55.043Z,1015.85
2018-06-03T05:26:55.008Z,1015.85
2018-06-03T05:27:54.965Z,1015.88
2018-06-03T05:28:54.924Z,1015.89
2018-06-03T05:29:54.884Z,1015.93
2018-06-03T05:30:54.858Z,1015.95
2018-06-03T05:31:54.805Z,1015.93
2018-06-03T05:32:54.763Z,1015.92
2018-06-03T05:33:54.723Z,1015.93
2018-06-03T05:34:54.685Z,1015.96
2018-06-03T05:35:54.645Z,1015.95
2018-06-03T05:36:54.607Z,1015.98
2018-06-03T05:37:54.566Z,1015.95
2018-06-03T05:38:54.524Z,1015.96
2018-06-03T05:39:54.483Z,1015.96
2018-06-03T05:40:54.447Z,1016.00
2018-06-03T05:41:54.403Z,1016.00
2018-06-03T05:42:54.375Z,1016.00
2018-06-03T05:43:54.328Z,1016.02
2018-06-03T05:44:54.286Z,1016.01
2018-06-03T05:45:54.243Z,1016.00
2018-06-03T05:46:54.202Z,1016.02
2018-06-03T05:47:54.164Z,1016.03
2018-06-03T05:48:54.124Z,1016.04
2018-06-03T05:49:54.084Z,1016.02
2018-06-03T05:50:54.041Z,1016.03
2018-06-03T05:51:54.005Z,1016.06
2018-06-03T05:52:53.971Z,1016.07
2018-06-03T05:53:53.923Z,1016.06
2018-06-03T05:54:53.884Z,1016.03
2018-06-03T05:55:53.884Z,1016.08
2018-06-03T05:56:53.805Z,1016.10
2018-06-03T05:57:53.764Z,1016.08
2018-06-03T05:58:53.725Z,1016.13
2018-06-03T05:59:53.688Z,1016.14
2018-06-03T06:00:53.650Z,1016.13
2018-06-03T06:01:53.608Z,1016.15
2018-06-03T06:02:53.566Z,1016.13
2018-06-03T06:03:53.531Z,1016.14
2018-06-03T06:04:53.485Z,1016.15
2018-06-03T06:05:53.449Z,1016.13
2018-06-03T06:06:53.421Z,1016.13
2018-06-03T06:07:53.376Z,1016.16
2018-06-03T06:08:53.333Z,1016.17
2018-06-03T06:09:53.287Z,1016.16
2018-06-03T06:10:53.249Z,1016.18
2018-06-03T06:11:53.208Z,1016.20
2018-06-03T06:12:53.172Z,1016.20
2018-06-03T06:13:53.130Z,1016.14
2018-06-03T06:14:53.098Z,1016.24
2018-06-03T06:15:53.051Z,1016.24
2018-06-03T06:16:53.015Z,1016.26
2018-06-03T06:17:52.975Z,1016.29
2018-06-03T06:18:52.939Z,1016.33
2018-06-03T06:19:52.893Z,1016.30
2018-06-03T06:20:52.858Z,1016.34
2018-06-03T06:21:52.817Z,1016.33
2018-06-03T06:22:52.773Z,1016.33
2018-06-03T06:23:52.734Z,1016.32
2018-06-03T06:24:52.693Z,1016.34
2018-06-03T06:25:52.657Z,1016.33
2018-06-03T06:26:52.615Z,1016.34
2018-06-03T06:27:52.577Z,1016.35
2018-06-03T06:28:52.538Z,1016.34
2018-06-03T06:29:52.496Z,1016.39
2018-06-03T06:30:52.454Z,1016.38
2018-06-03T06:31:52.420Z,1016.42
2018-06-03T06:32:52.381Z,1016.37
2018-06-03T06:33:52.339Z,1016.45
2018-06-03T06:34:52.294Z,1016.45
2018-06-03T06:35:52.259Z,1016.41
2018-06-03T06:36:52.216Z,1016.46
2018-06-03T06:37:52.177Z,1016.47
2018-06-03T06:38:52.140Z,1016.44
2018-06-03T06:39:52.106Z,1016.45
2018-06-03T06:40:52.062Z,1016.44
2018-06-03T06:41:52.021Z,1016.44
2018-06-03T06:42:51.981Z,1016.39
2018-06-03T06:43:51.941Z,1016.42
2018-06-03T06:44:51.906Z,1016.41
2018-06-03T06:45:51.863Z,1016.41
2018-06-03T06:46:51.824Z,1016.40
2018-06-03T06:47:51.793Z,1016.39
2018-06-03T06:48:51.747Z,1016.43
2018-06-03T06:49:51.708Z,1016.40
2018-06-03T06:50:51.668Z,1016.43
2018-06-03T06:51:51.633Z,1016.44
2018-06-03T06:52:51.593Z,1016.43
2018-06-03T06:53:51.552Z,1016.45
2018-06-03T06:54:51.513Z,1016.44
2018-06-03T06:55:51.475Z,1016.43
2018-06-03T06:56:51.434Z,1016.46
2018-06-03T06:57:51.395Z,1016.44
2018-06-03T06:58:51.359Z,1016.46
2018-06-03T06:59:51.317Z,1016.46
2018-06-03T07:00:51.287Z,1016.45
2018-06-03T07:01:51.245Z,1016.50
2018-06-03T07:02:51.210Z,1016.49
2018-06-03T07:03:51.166Z,1016.49
2018-06-03T07:04:51.130Z,1016.50
2018-06-03T07:05:51.084Z,1016.45
2018-06-03T07:06:51.047Z,1016.48
2018-06-03T07:07:51.008Z,1016.53
2018-06-03T07:08:50.971Z,1016.50
2018-06-03T07:09:50.936Z,1016.52
2018-06-03T07:10:50.896Z,1016.54
2018-06-03T07:11:50.853Z,1016.56
2018-06-03T07:12:50.812Z,1016.58
2018-06-03T07:13:50.777Z,1016.62
2018-06-03T07:14:50.737Z,1016.64
2018-06-03T07:15:50.700Z,1016.66
2018-06-03T07:16:50.664Z,1016.65
2018-06-03T07:17:50.622Z,1016.60
2018-06-03T07:18:50.582Z,1016.60
2018-06-03T07:19:50.544Z,1016.62
2018-06-03T07:20:50.504Z,1016.60
2018-06-03T07:21:50.468Z,1016.58
2018-06-03T07:22:50.427Z,1016.57
2018-06-03T07:23:50.392Z,1016.59
2018-06-03T07:24:50.351Z,1016.59
2018-06-03T07:25:50.311Z,1016.57
2018-06-03T07:26:50.269Z,1016.59
2018-06-03T07:27:50.236Z,1016.54
2018-06-03T07:28:50.192Z,1016.56
2018-06-03T07:29:50.156Z,1016.56
2018-06-03T07:30:50.116Z,1016.58
2018-06-03T07:31:50.088Z,1016.59
2018-06-03T07:32:50.042Z,1016.56
2018-06-03T07:33:49.998Z,1016.56
2018-06-03T07:34:49.961Z,1016.57
2018-06-03T07:35:49.922Z,1016.58
2018-06-03T07:36:49.882Z,1016.57
2018-06-03T07:37:49.843Z,1016.56
2018-06-03T07:38:49.806Z,1016.58
2018-06-03T07:39:49.767Z,1016.61
2018-06-03T07:40:49.729Z,1016.61
2018-06-03T07:41:49.689Z,1016.59
2018-06-03T07:42:49.655Z,1016.62
2018-06-03T07:43:49.614Z,1016.59
2018-06-03T07:44:49.577Z,1016.61
2018-06-03T07:45:49.535Z,1016.56
2018-06-03T07:46:49.496Z,1016.56
2018-06-03T07:47:49.457Z,1016.57
2018-06-03T07:48:49.420Z,1016.60
2018-06-03T07:49:49.379Z,1016.58
2018-06-03T07:50:49.343Z,1016.57
2018-06-03T07:51:49.303Z,1016.58
2018-06-03T07:52:49.266Z,1016.58
2018-06-03T07:53:49.226Z,1016.59
2018-06-03T07:54:49.187Z,1016.57
2018-06-03T07:55:49.146Z,1016.59
2018-06-03T07:56:49.119Z,1016.56
2018-06-03T07:57:49.109Z,1016.56
2018-06-03T07:58:49.034Z,1016.53
2018-06-03T07:59:49.013Z,1016.58
2018-06-03T08:00:48.963Z,1016.58
2018-06-03T08:01:48.938Z,1016.58
2018-06-03T08:02:48.873Z,1016.60
2018-06-03T08:03:48.838Z,1016.64
2018-06-03T08:04:48.797Z,1016.59
2018-06-03T08:05:48.757Z,1016.62
2018-06-03T08:06:48.725Z,1016.64
2018-06-03T08:07:48.680Z,1016.66
2018-06-03T08:08:48.643Z,1016.64
2018-06-03T08:09:48.603Z,1016.61
2018-06-03T08:10:48.564Z,1016.60
2018-06-03T08:11:48.527Z,1016.59
2018-06-03T08:12:48.486Z,1016.61
2018-06-03T08:13:48.508Z,1016.61
2018-06-03T08:14:48.410Z,1016.61
2018-06-03T08:15:48.371Z,1016.59
2018-06-03T08:16:48.333Z,1016.65
2018-06-03T08:17:48.293Z,1016.63
2018-06-03T08:18:48.263Z,1016.62
2018-06-03T08:19:48.219Z,1016.62
2018-06-03T08:20:48.180Z,1016.61
2018-06-03T08:21:48.139Z,1016.64
2018-06-03T08:22:48.113Z,1016.62
2018-06-03T08:23:48.060Z,1016.60
2018-06-03T08:24:48.022Z,1016.62
2018-06-03T08:25:47.984Z,1016.59
2018-06-03T08:26:47.943Z,1016.59
2018-06-03T08:27:47.913Z,1016.59
2018-06-03T08:28:47.869Z,1016.60
2018-06-03T08:29:47.880Z,1016.57
2018-06-03T08:30:47.787Z,1016.57
2018-06-03T08:31:47.754Z,1016.57
2018-06-03T08:32:47.712Z,1016.54
2018-06-03T08:33:47.667Z,1016.56
2018-06-03T08:34:47.630Z,1016.57
2018-06-03T08:35:47.591Z,1016.54
2018-06-03T08:36:47.557Z,1016.59
2018-06-03T08:37:47.519Z,1016.57
2018-06-03T08:38:47.482Z,1016.57
2018-06-03T08:39:47.435Z,1016.57
2018-06-03T08:40:47.402Z,1016.51
2018-06-03T08:41:47.360Z,1016.54
2018-06-03T08:42:47.319Z,1016.54
2018-06-03T08:43:47.278Z,1016.49
2018-06-03T08:44:47.255Z,1016.50
2018-06-03T08:45:47.204Z,1016.45
2018-06-03T08:46:47.161Z,1016.49
2018-06-03T08:47:47.123Z,1016.47
2018-06-03T08:48:47.085Z,1016.49
2018-06-03T08:49:47.047Z,1016.46
2018-06-03T08:50:47.005Z,1016.49
2018-06-03T08:51:46.965Z,1016.51
2018-06-03T08:52:46.928Z,1016.50
2018-06-03T08:53:46.891Z,1016.51
2018-06-03T08:54:46.849Z,1016.51
2018-06-03T08:55:46.811Z,1016.55
2018-06-03T08:56:46.773Z,1016.55
2018-06-03T08:57:46.732Z,1016.49
2018-06-03T08:58:46.694Z,1016.59
2018-06-03T08:59:46.658Z,1016.58
2018-06-03T09:00:46.621Z,1016.60
2018-06-03T09:01:46.580Z,1016.60
2018-06-03T09:02:46.537Z,1016.58
2018-06-03T09:03:46.498Z,1016.59
2018-06-03T09:04:46.460Z,1016.58
2018-06-03T09:05:46.426Z,1016.60
2018-06-03T09:06:46.386Z,1016.64
2018-06-03T09:07:46.342Z,1016.61
2018-06-03T09:08:46.312Z,1016.60
2018-06-03T09:09:46.269Z,1016.61
2018-06-03T09:10:46.231Z,1016.60
2018-06-03T09:11:46.190Z,1016.56
2018-06-03T09:12:46.150Z,1016.60
2018-06-03T09:13:46.112Z,1016.57
2018-06-03T09:14:46.078Z,1016.57
2018-06-03T09:15:46.033Z,1016.56
2018-06-03T09:16:45.993Z,1016.59
2018-06-03T09:17:45.959Z,1016.64
2018-06-03T09:18:45.945Z,1016.59
2018-06-03T09:19:45.878Z,1016.59
2018-06-03T09:20:45.839Z,1016.60
2018-06-03T09:21:45.798Z,1016.63
2018-06-03T09:22:45.761Z,1016.60
2018-06-03T09:23:45.729Z,1016.58
2018-06-03T09:24:45.684Z,1016.59
2018-06-03T09:25:45.647Z,1016.55
2018-06-03T09:26:45.603Z,1016.55
2018-06-03T09:27:45.574Z,1016.52
2018-06-03T09:28:45.530Z,1016.50
2018-06-03T09:29:45.489Z,1016.55
2018-06-03T09:30:45.451Z,1016.52
2018-06-03T09:31:45.415Z,1016.51
2018-06-03T09:32:45.372Z,1016.54
2018-06-03T09:33:45.336Z,1016.52
2018-06-03T09:34:45.294Z,1016.55
2018-06-03T09:35:45.257Z,1016.52
2018-06-03T09:36:45.219Z,1016.54
2018-06-03T09:37:45.202Z,1016.53
2018-06-03T09:38:45.140Z,1016.51
2018-06-03T09:39:45.101Z,1016.50
2018-06-03T09:40:45.064Z,1016.46
2018-06-03T09:41:45.025Z,1016.52
2018-06-03T09:42:44.987Z,1016.49
2018-06-03T09:43:44.949Z,1016.48
2018-06-03T09:44:44.912Z,1016.49
2018-06-03T09:45:44.868Z,1016.51
2018-06-03T09:46:44.832Z,1016.48
2018-06-03T09:47:44.796Z,1016.50
2018-06-03T09:48:44.755Z,1016.50
2018-06-03T09:49:44.718Z,1016.49
2018-06-03T09:50:44.676Z,1016.49
2018-06-03T09:51:44.639Z,1016.47
2018-06-03T09:52:44.599Z,1016.47
2018-06-03T09:53:44.561Z,1016.46
2018-06-03T09:54:44.525Z,1016.45
2018-06-03T09:55:44.485Z,1016.45
2018-06-03T09:56:44.448Z,1016.44
2018-06-03T09:57:44.407Z,1016.45
2018-06-03T09:58:44.371Z,1016.44
2018-06-03T09:59:44.332Z,1016.41
2018-06-03T10:00:44.292Z,1016.43
2018-06-03T10:01:44.252Z,1016.41
2018-06-03T10:02:44.215Z,1016.44
2018-06-03T10:03:44.178Z,1016.43
2018-06-03T10:04:44.142Z,1016.44
2018-06-03T10:05:44.102Z,1016.46
2018-06-03T10:06:44.062Z,1016.39
2018-06-03T10:07:44.025Z,1016.43
2018-06-03T10:08:43.987Z,1016.40
2018-06-03T10:09:43.946Z,1016.38
2018-06-03T10:10:43.910Z,1016.33
2018-06-03T10:11:43.874Z,1016.36
2018-06-03T10:12:43.833Z,1016.32
2018-06-03T10:13:43.796Z,1016.35
2018-06-03T10:14:43.757Z,1016.36
2018-06-03T10:15:43.718Z,1016.36
2018-06-03T10:16:43.687Z,1016.39
2018-06-03T10:17:43.642Z,1016.39
2018-06-03T10:18:43.605Z,1016.36
2018-06-03T10:19:43.567Z,1016.36
2018-06-03T10:20:43.528Z,1016.36
2018-06-03T10:21:43.493Z,1016.41
2018-06-03T10:22:43.457Z,1016.37
2018-06-03T10:23:43.417Z,1016.40
2018-06-03T10:24:43.389Z,1016.38
2018-06-03T10:25:43.341Z,1016.41
2018-06-03T10:26:43.303Z,1016.41
2018-06-03T10:27:43.272Z,1016.41
2018-06-03T10:28:43.232Z,1016.43
2018-06-03T10:29:43.194Z,1016.43
2018-06-03T10:30:43.153Z,1016.41
2018-06-03T10:31:43.120Z,1016.39
2018-06-03T10:32:43.081Z,1016.39
2018-06-03T10:33:43.049Z,1016.42
2018-06-03T10:34:43.006Z,1016.40
2018-06-03T10:35:42.966Z,1016.41
2018-06-03T10:36:42.930Z,1016.40
2018-06-03T10:37:42.892Z,1016.42
2018-06-03T10:38:42.860Z,1016.41
2018-06-03T10:39:42.819Z,1016.42
2018-06-03T10:40:42.782Z,1016.43
2018-06-03T10:41:42.749Z,1016.43
2018-06-03T10:42:42.708Z,1016.41
2018-06-03T10:43:42.689Z,1016.38
2018-06-03T10:44:42.635Z,1016.34
2018-06-03T10:45:42.598Z,1016.32
2018-06-03T10:46:42.564Z,1016.34
2018-06-03T10:47:42.528Z,1016.31
2018-06-03T10:48:42.490Z,1016.30
2018-06-03T10:49:42.455Z,1016.26
2018-06-03T10:50:42.416Z,1016.22
2018-06-03T10:51:42.442Z,1016.24
2018-06-03T10:52:42.350Z,1016.23
2018-06-03T10:53:42.312Z,1016.23
2018-06-03T10:54:42.273Z,1016.22
2018-06-03T10:55:42.239Z,1016.17
2018-06-03T10:56:42.206Z,1016.19
2018-06-03T10:57:42.170Z,1016.20
2018-06-03T10:58:42.134Z,1016.16
2018-06-03T10:59:42.095Z,1016.19
2018-06-03T11:00:42.061Z,1016.16
2018-06-03T11:01:42.025Z,1016.17
2018-06-03T11:02:41.991Z,1016.13
2018-06-03T11:03:41.953Z,1016.14
2018-06-03T11:04:41.923Z,1016.15
2018-06-03T11:05:41.883Z,1016.14
2018-06-03T11:06:41.850Z,1016.15
2018-06-03T11:07:41.818Z,1016.16
2018-06-03T11:08:41.781Z,1016.17
2018-06-03T11:09:41.755Z,1016.13
2018-06-03T11:10:41.714Z,1016.15
2018-06-03T11:11:41.679Z,1016.09
2018-06-03T11:12:41.641Z,1016.12
2018-06-03T11:13:41.609Z,1016.13
2018-06-03T11:14:41.570Z,1016.07
2018-06-03T11:15:41.535Z,1016.09
2018-06-03T11:16:41.558Z,1016.09
2018-06-03T11:17:41.466Z,1016.06
2018-06-03T11:18:41.436Z,1016.06
2018-06-03T11:19:41.398Z,1016.08
2018-06-03T11:20:41.373Z,1016.04
2018-06-03T11:21:41.330Z,1016.01
2018-06-03T11:22:41.295Z,1016.06
2018-06-03T11:23:41.260Z,1016.03
2018-06-03T11:24:41.226Z,1016.03
2018-06-03T11:25:41.190Z,1016.01
2018-06-03T11:26:41.178Z,1016.01
2018-06-03T11:27:41.128Z,1015.98
2018-06-03T11:28:41.093Z,1015.99
2018-06-03T11:29:41.058Z,1015.93
2018-06-03T11:30:41.022Z,1015.96
2018-06-03T11:31:40.995Z,1015.98
2018-06-03T11:32:40.956Z,1015.95
2018-06-03T11:33:40.923Z,1015.97
2018-06-03T11:34:40.887Z,1015.99
2018-06-03T11:35:40.859Z,1015.94
2018-06-03T11:36:40.827Z,1015.93
2018-06-03T11:37:40.786Z,1015.93
2018-06-03T11:38:40.766Z,1015.98
2018-06-03T11:39:40.720Z,1015.93
2018-06-03T11:40:40.687Z,1015.96
2018-06-03T11:41:40.654Z,1015.94
2018-06-03T11:42:40.619Z,1015.96
2018-06-03T11:43:40.590Z,1015.96
2018-06-03T11:44:40.555Z,1015.95
2018-06-03T11:45:40.520Z,1015.91
2018-06-03T11:46:40.487Z,1015.92
2018-06-03T11:47:40.455Z,1015.87
2018-06-03T11:48:40.421Z,1015.91
2018-06-03T11:49:40.397Z,1015.90
2018-06-03T11:50:40.402Z,1015.91
2018-06-03T11:51:40.323Z,1015.88
2018-06-03T11:52:40.290Z,1015.95
2018-06-03T11:53:40.261Z,1015.91
2018-06-03T11:54:40.222Z,1015.89
2018-06-03T11:55:40.190Z,1015.87
2018-06-03T11:56:40.158Z,1015.89
2018-06-03T11:57:40.124Z,1015.84
2018-06-03T11:58:40.091Z,1015.84
2018-06-03T11:59:40.056Z,1015.87
2018-06-03T12:00:40.025Z,1015.86
2018-06-03T12:01:40.001Z,1015.84
2018-06-03T12:02:39.970Z,1015.82
2018-06-03T12:03:39.933Z,1015.79
2018-06-03T12:04:39.894Z,1015.80
2018-06-03T12:05:39.859Z,1015.76